sensor_id;sensor_type;location;lat;lon;timestamp;P1;durP1;ratioP1;P2;durP2;ratioP2
15637;SDS011;26604;53.596;10.042;2024-01-15T05:37:39;22.98;;;2.70;;
15637;SDS011;26604;53.596;10.042;2024-01-15T05:40:09;12.35;;;2.28;;
15637;SDS011;26604;53.596;10.042;2024-01-15T05:42:36;17.52;;;2.08;;
15637;SDS011;26604;53.596;10.042;2024-01-15T05:45:04;15.30;;;2.78;;
15637;SDS011;26604;53.596;10.042;2024-01-15T05:47:32;16.60;;;2.65;;
15637;SDS011;26604;53.596;10.042;2024-01-15T05:50:00;11.82;;;2.83;;
15637;SDS011;26604;53.596;10.042;2024-01-15T05:52:27;16.33;;;3.33;;
15637;SDS011;26604;53.596;10.042;2024-01-15T05:54:55;17.98;;;2.67;;
15637;SDS011;26604;53.596;10.042;2024-01-15T05:57:22;8.50;;;1.80;;
15637;SDS011;26604;53.596;10.042;2024-01-15T05:59:49;16.02;;;2.80;;
15637;SDS011;26604;53.596;10.042;2024-01-15T06:02:16;17.90;;;2.58;;
15637;SDS011;26604;53.596;10.042;2024-01-15T06:04:43;10.68;;;1.70;;
15637;SDS011;26604;53.596;10.042;2024-01-15T06:07:09;37.50;;;2.63;;
15637;SDS011;26604;53.596;10.042;2024-01-15T06:09:36;19.65;;;3.25;;
15637;SDS011;26604;53.596;10.042;2024-01-15T06:12:05;17.30;;;2.40;;
15637;SDS011;26604;53.596;10.042;2024-01-15T06:14:33;15.25;;;2.28;;
15637;SDS011;26604;53.596;10.042;2024-01-15T06:17:00;11.18;;;2.33;;
15637;SDS011;26604;53.596;10.042;2024-01-15T06:19:26;14.07;;;2.30;;
15637;SDS011;26604;53.596;10.042;2024-01-15T06:21:53;13.38;;;2.38;;
15637;SDS011;26604;53.596;10.042;2024-01-15T06:24:20;16.40;;;2.33;;
15637;SDS011;26604;53.596;10.042;2024-01-15T06:26:47;15.68;;;2.10;;
15637;SDS011;26604;53.596;10.042;2024-01-15T06:29:15;18.80;;;2.58;;
15637;SDS011;26604;53.596;10.042;2024-01-15T06:31:42;11.25;;;2.65;;
15637;SDS011;26604;53.596;10.042;2024-01-15T06:34:09;9.70;;;2.60;;
15637;SDS011;26604;53.596;10.042;2024-01-15T06:36:36;20.58;;;2.78;;
15637;SDS011;26604;53.596;10.042;2024-01-15T06:39:02;7.80;;;1.75;;
15637;SDS011;26604;53.596;10.042;2024-01-15T06:41:30;18.00;;;2.70;;
15637;SDS011;26604;53.596;10.042;2024-01-15T06:43:57;14.90;;;2.60;;
15637;SDS011;26604;53.596;10.042;2024-01-15T06:46:25;12.05;;;2.47;;
15637;SDS011;26604;53.596;10.042;2024-01-15T06:48:52;16.98;;;2.25;;
15637;SDS011;26604;53.596;10.042;2024-01-15T06:51:18;17.98;;;2.65;;
15637;SDS011;26604;53.596;10.042;2024-01-15T06:53:45;18.55;;;2.08;;
15637;SDS011;26604;53.596;10.042;2024-01-15T06:56:12;7.72;;;2.35;;
15637;SDS011;26604;53.596;10.042;2024-01-15T06:58:39;16.25;;;2.00;;
15637;SDS011;26604;53.596;10.042;2024-01-15T07:01:06;10.65;;;2.13;;
15637;SDS011;26604;53.596;10.042;2024-01-15T07:03:34;10.98;;;2.35;;
15637;SDS011;26604;53.596;10.042;2024-01-15T07:06:01;13.55;;;1.90;;
15637;SDS011;26604;53.596;10.042;2024-01-15T07:08:28;12.50;;;2.03;;
15637;SDS011;26604;53.596;10.042;2024-01-15T07:10:55;13.20;;;2.05;;
15637;SDS011;26604;53.596;10.042;2024-01-15T07:13:22;13.63;;;2.10;;
15637;SDS011;26604;53.596;10.042;2024-01-15T07:15:48;12.82;;;1.65;;
15637;SDS011;26604;53.596;10.042;2024-01-15T07:18:15;10.75;;;1.77;;
15637;SDS011;26604;53.596;10.042;2024-01-15T07:20:44;17.92;;;2.97;;
15637;SDS011;26604;53.596;10.042;2024-01-15T07:23:10;17.13;;;2.15;;
15637;SDS011;26604;53.596;10.042;2024-01-15T07:25:37;11.43;;;2.30;;
15637;SDS011;26604;53.596;10.042;2024-01-15T07:28:04;13.15;;;2.55;;
15637;SDS011;26604;53.596;10.042;2024-01-15T07:30:31;13.02;;;1.55;;
15637;SDS011;26604;53.596;10.042;2024-01-15T07:32:58;6.03;;;1.63;;
15637;SDS011;26604;53.596;10.042;2024-01-15T07:35:25;12.25;;;1.38;;
15637;SDS011;26604;53.596;10.042;2024-01-15T07:37:53;13.73;;;2.60;;
15637;SDS011;26604;53.596;10.042;2024-01-15T07:40:20;11.82;;;1.55;;
15637;SDS011;26604;53.596;10.042;2024-01-15T07:42:47;9.93;;;1.50;;
15637;SDS011;26604;53.596;10.042;2024-01-15T07:45:14;7.32;;;1.40;;
15637;SDS011;26604;53.596;10.042;2024-01-15T07:47:41;13.48;;;2.20;;
15637;SDS011;26604;53.596;10.042;2024-01-15T07:50:08;11.90;;;1.20;;
15637;SDS011;26604;53.596;10.042;2024-01-15T07:52:34;5.30;;;1.20;;
15637;SDS011;26604;53.596;10.042;2024-01-15T07:55:03;7.43;;;1.33;;
15637;SDS011;26604;53.596;10.042;2024-01-15T07:57:30;7.30;;;1.08;;
15637;SDS011;26604;53.596;10.042;2024-01-15T07:59:57;7.80;;;1.10;;
15637;SDS011;26604;53.596;10.042;2024-01-15T08:02:24;6.57;;;1.52;;
15637;SDS011;26604;53.596;10.042;2024-01-15T08:04:51;8.32;;;1.52;;
15637;SDS011;26604;53.596;10.042;2024-01-15T08:07:18;3.50;;;0.90;;
15637;SDS011;26604;53.596;10.042;2024-01-15T08:09:44;5.70;;;1.23;;
15637;SDS011;26604;53.596;10.042;2024-01-15T08:12:15;9.57;;;1.42;;
15637;SDS011;26604;53.596;10.042;2024-01-15T08:14:42;10.93;;;1.23;;
15637;SDS011;26604;53.596;10.042;2024-01-15T08:17:09;8.00;;;1.40;;
15637;SDS011;26604;53.596;10.042;2024-01-15T08:19:35;6.18;;;1.35;;
15637;SDS011;26604;53.596;10.042;2024-01-15T08:22:02;5.80;;;1.27;;
15637;SDS011;26604;53.596;10.042;2024-01-15T08:24:29;9.13;;;1.40;;
15637;SDS011;26604;53.596;10.042;2024-01-15T08:26:56;7.43;;;1.30;;
15637;SDS011;26604;53.596;10.042;2024-01-15T08:29:24;16.73;;;1.73;;
15637;SDS011;26604;53.596;10.042;2024-01-15T08:31:51;10.48;;;1.77;;
15637;SDS011;26604;53.596;10.042;2024-01-15T08:34:18;11.90;;;2.05;;
15637;SDS011;26604;53.596;10.042;2024-01-15T08:36:45;6.60;;;1.60;;
15637;SDS011;26604;53.596;10.042;2024-01-15T08:39:12;9.20;;;1.90;;
15637;SDS011;26604;53.596;10.042;2024-01-15T08:41:39;7.82;;;1.38;;
15637;SDS011;26604;53.596;10.042;2024-01-15T08:44:06;10.82;;;1.45;;
15637;SDS011;26604;53.596;10.042;2024-01-15T08:46:34;8.25;;;2.20;;
15637;SDS011;26604;53.596;10.042;2024-01-15T08:49:01;4.78;;;1.15;;
15637;SDS011;26604;53.596;10.042;2024-01-15T08:51:28;10.77;;;1.25;;
15637;SDS011;26604;53.596;10.042;2024-01-15T08:53:55;7.45;;;1.63;;
15637;SDS011;26604;53.596;10.042;2024-01-15T08:56:22;6.18;;;1.52;;
15637;SDS011;26604;53.596;10.042;2024-01-15T08:58:49;11.45;;;1.73;;
15637;SDS011;26604;53.596;10.042;2024-01-15T09:01:16;8.98;;;1.38;;
15637;SDS011;26604;53.596;10.042;2024-01-15T09:03:45;6.13;;;1.35;;
15637;SDS011;26604;53.596;10.042;2024-01-15T09:06:13;13.82;;;1.67;;
15637;SDS011;26604;53.596;10.042;2024-01-15T09:08:40;7.90;;;1.25;;
15637;SDS011;26604;53.596;10.042;2024-01-15T09:11:07;8.82;;;1.23;;
15637;SDS011;26604;53.596;10.042;2024-01-15T09:13:33;4.97;;;1.25;;
15637;SDS011;26604;53.596;10.042;2024-01-15T09:16:00;6.93;;;1.08;;
15637;SDS011;26604;53.596;10.042;2024-01-15T09:18:28;7.13;;;1.20;;
15637;SDS011;26604;53.596;10.042;2024-01-15T09:20:56;4.63;;;1.05;;
15637;SDS011;26604;53.596;10.042;2024-01-15T09:23:23;6.50;;;1.40;;
15637;SDS011;26604;53.596;10.042;2024-01-15T09:25:50;10.50;;;1.52;;
15637;SDS011;26604;53.596;10.042;2024-01-15T09:28:17;8.88;;;2.03;;
15637;SDS011;26604;53.596;10.042;2024-01-15T09:30:44;6.45;;;1.00;;
15637;SDS011;26604;53.596;10.042;2024-01-15T09:33:12;6.90;;;1.15;;
15637;SDS011;26604;53.596;10.042;2024-01-15T09:35:39;7.63;;;1.58;;
15637;SDS011;26604;53.596;10.042;2024-01-15T09:38:07;7.10;;;1.25;;
15637;SDS011;26604;53.596;10.042;2024-01-15T09:40:34;4.68;;;1.30;;
15637;SDS011;26604;53.596;10.042;2024-01-15T09:43:04;10.48;;;1.88;;
15637;SDS011;26604;53.596;10.042;2024-01-15T09:45:31;6.18;;;1.08;;
15637;SDS011;26604;53.596;10.042;2024-01-15T09:47:58;5.85;;;1.40;;
15637;SDS011;26604;53.596;10.042;2024-01-15T09:50:25;4.05;;;1.25;;
15637;SDS011;26604;53.596;10.042;2024-01-15T09:52:52;10.75;;;1.75;;
15637;SDS011;26604;53.596;10.042;2024-01-15T09:55:23;8.27;;;1.30;;
15637;SDS011;26604;53.596;10.042;2024-01-15T09:57:51;5.45;;;1.08;;
15637;SDS011;26604;53.596;10.042;2024-01-15T10:00:19;11.80;;;1.05;;
15637;SDS011;26604;53.596;10.042;2024-01-15T10:02:47;5.18;;;1.13;;
15637;SDS011;26604;53.596;10.042;2024-01-15T10:05:14;9.18;;;1.48;;
15637;SDS011;26604;53.596;10.042;2024-01-15T10:07:41;11.23;;;1.38;;
15637;SDS011;26604;53.596;10.042;2024-01-15T10:10:10;12.48;;;1.67;;
15637;SDS011;26604;53.596;10.042;2024-01-15T10:12:39;9.73;;;1.40;;
15637;SDS011;26604;53.596;10.042;2024-01-15T10:15:06;6.90;;;1.50;;
15637;SDS011;26604;53.596;10.042;2024-01-15T10:17:36;7.55;;;2.13;;
15637;SDS011;26604;53.596;10.042;2024-01-15T10:20:07;8.32;;;1.38;;
15637;SDS011;26604;53.596;10.042;2024-01-15T10:22:35;6.50;;;1.35;;
15637;SDS011;26604;53.596;10.042;2024-01-15T10:25:03;9.25;;;1.23;;
15637;SDS011;26604;53.596;10.042;2024-01-15T10:27:30;6.65;;;1.15;;
15637;SDS011;26604;53.596;10.042;2024-01-15T10:29:59;7.55;;;1.33;;
15637;SDS011;26604;53.596;10.042;2024-01-15T10:32:27;8.75;;;1.45;;
15637;SDS011;26604;53.596;10.042;2024-01-15T10:34:54;4.63;;;1.08;;
15637;SDS011;26604;53.596;10.042;2024-01-15T10:37:21;11.07;;;1.63;;
15637;SDS011;26604;53.596;10.042;2024-01-15T10:39:50;2.30;;;0.90;;
15637;SDS011;26604;53.596;10.042;2024-01-15T10:42:17;4.97;;;0.65;;
15637;SDS011;26604;53.596;10.042;2024-01-15T10:44:44;3.97;;;1.08;;
15637;SDS011;26604;53.596;10.042;2024-01-15T10:47:13;5.20;;;0.60;;
15637;SDS011;26604;53.596;10.042;2024-01-15T10:49:41;4.75;;;0.93;;
15637;SDS011;26604;53.596;10.042;2024-01-15T10:52:08;3.28;;;0.90;;
15637;SDS011;26604;53.596;10.042;2024-01-15T10:54:35;2.05;;;1.00;;
15637;SDS011;26604;53.596;10.042;2024-01-15T10:57:04;2.47;;;0.73;;
15637;SDS011;26604;53.596;10.042;2024-01-15T10:59:32;6.18;;;0.93;;
15637;SDS011;26604;53.596;10.042;2024-01-15T11:01:59;4.82;;;1.58;;
15637;SDS011;26604;53.596;10.042;2024-01-15T11:04:27;8.52;;;1.10;;
15637;SDS011;26604;53.596;10.042;2024-01-15T11:06:57;1.73;;;0.77;;
15637;SDS011;26604;53.596;10.042;2024-01-15T11:09:24;4.45;;;1.00;;
15637;SDS011;26604;53.596;10.042;2024-01-15T11:11:52;5.18;;;0.95;;
15637;SDS011;26604;53.596;10.042;2024-01-15T11:14:35;5.18;;;1.17;;
15637;SDS011;26604;53.596;10.042;2024-01-15T11:17:04;2.97;;;0.70;;
15637;SDS011;26604;53.596;10.042;2024-01-15T11:19:39;2.08;;;0.98;;
15637;SDS011;26604;53.596;10.042;2024-01-15T11:22:10;1.95;;;0.65;;
15637;SDS011;26604;53.596;10.042;2024-01-15T11:24:57;2.33;;;0.60;;
15637;SDS011;26604;53.596;10.042;2024-01-15T11:27:39;2.85;;;0.75;;
15637;SDS011;26604;53.596;10.042;2024-01-15T11:30:07;3.20;;;1.05;;
15637;SDS011;26604;53.596;10.042;2024-01-15T11:32:35;4.72;;;0.80;;
15637;SDS011;26604;53.596;10.042;2024-01-15T11:35:04;2.90;;;0.80;;
15637;SDS011;26604;53.596;10.042;2024-01-15T11:43:09;7.38;;;1.35;;
15637;SDS011;26604;53.596;10.042;2024-01-15T11:45:38;3.88;;;0.90;;
15637;SDS011;26604;53.596;10.042;2024-01-15T11:48:10;2.53;;;0.82;;
15637;SDS011;26604;53.596;10.042;2024-01-15T11:50:41;4.35;;;1.10;;
15637;SDS011;26604;53.596;10.042;2024-01-15T11:53:12;6.28;;;1.20;;
15637;SDS011;26604;53.596;10.042;2024-01-15T11:55:43;7.85;;;0.95;;
15637;SDS011;26604;53.596;10.042;2024-01-15T11:58:13;9.02;;;1.33;;
15637;SDS011;26604;53.596;10.042;2024-01-15T12:00:42;8.70;;;1.40;;
15637;SDS011;26604;53.596;10.042;2024-01-15T12:03:09;6.40;;;1.88;;
15637;SDS011;26604;53.596;10.042;2024-01-15T12:05:36;5.60;;;0.93;;
15637;SDS011;26604;53.596;10.042;2024-01-15T12:08:05;6.43;;;1.10;;
15637;SDS011;26604;53.596;10.042;2024-01-15T12:10:35;3.90;;;1.13;;
15637;SDS011;26604;53.596;10.042;2024-01-15T12:13:04;4.45;;;1.02;;
15637;SDS011;26604;53.596;10.042;2024-01-15T12:15:33;6.65;;;1.30;;
15637;SDS011;26604;53.596;10.042;2024-01-15T12:18:01;8.52;;;1.40;;
15637;SDS011;26604;53.596;10.042;2024-01-15T12:20:29;6.10;;;1.00;;
15637;SDS011;26604;53.596;10.042;2024-01-15T12:22:56;4.32;;;1.50;;
15637;SDS011;26604;53.596;10.042;2024-01-15T12:25:25;6.75;;;1.10;;
15637;SDS011;26604;53.596;10.042;2024-01-15T12:27:53;3.90;;;1.02;;
15637;SDS011;26604;53.596;10.042;2024-01-15T12:30:20;5.38;;;1.08;;
15637;SDS011;26604;53.596;10.042;2024-01-15T12:32:47;4.30;;;1.05;;
15637;SDS011;26604;53.596;10.042;2024-01-15T12:35:14;5.30;;;1.35;;
15637;SDS011;26604;53.596;10.042;2024-01-15T12:37:41;4.85;;;1.23;;
15637;SDS011;26604;53.596;10.042;2024-01-15T12:40:09;2.55;;;0.90;;
15637;SDS011;26604;53.596;10.042;2024-01-15T12:42:38;6.25;;;1.23;;
15637;SDS011;26604;53.596;10.042;2024-01-15T12:45:06;6.35;;;1.23;;
15637;SDS011;26604;53.596;10.042;2024-01-15T12:47:33;3.17;;;0.95;;
15637;SDS011;26604;53.596;10.042;2024-01-15T12:50:00;5.28;;;0.95;;
15637;SDS011;26604;53.596;10.042;2024-01-15T12:52:28;1.98;;;1.10;;
15637;SDS011;26604;53.596;10.042;2024-01-15T12:54:55;7.15;;;1.23;;
15637;SDS011;26604;53.596;10.042;2024-01-15T12:57:22;3.95;;;1.02;;
15637;SDS011;26604;53.596;10.042;2024-01-15T12:59:51;1.98;;;1.08;;
15637;SDS011;26604;53.596;10.042;2024-01-15T13:02:17;4.82;;;1.50;;
15637;SDS011;26604;53.596;10.042;2024-01-15T13:04:44;1.52;;;0.93;;
15637;SDS011;26604;53.596;10.042;2024-01-15T13:07:11;2.15;;;0.98;;
15637;SDS011;26604;53.596;10.042;2024-01-15T13:09:38;4.00;;;1.00;;
15637;SDS011;26604;53.596;10.042;2024-01-15T13:12:05;3.38;;;1.40;;
15637;SDS011;26604;53.596;10.042;2024-01-15T13:14:33;2.10;;;0.80;;
15637;SDS011;26604;53.596;10.042;2024-01-15T13:17:01;2.00;;;1.10;;
15637;SDS011;26604;53.596;10.042;2024-01-15T13:19:28;1.83;;;0.90;;
15637;SDS011;26604;53.596;10.042;2024-01-15T13:21:55;2.78;;;1.00;;
15637;SDS011;26604;53.596;10.042;2024-01-15T13:24:25;2.65;;;1.08;;
15637;SDS011;26604;53.596;10.042;2024-01-15T13:26:51;5.03;;;1.08;;
15637;SDS011;26604;53.596;10.042;2024-01-15T13:29:18;2.15;;;1.00;;
15637;SDS011;26604;53.596;10.042;2024-01-15T13:31:45;2.13;;;1.05;;
15637;SDS011;26604;53.596;10.042;2024-01-15T13:34:13;1.85;;;0.85;;
15637;SDS011;26604;53.596;10.042;2024-01-15T13:36:40;2.13;;;0.88;;
15637;SDS011;26604;53.596;10.042;2024-01-15T13:39:07;6.75;;;1.63;;
15637;SDS011;26604;53.596;10.042;2024-01-15T13:41:34;2.75;;;1.40;;
15637;SDS011;26604;53.596;10.042;2024-01-15T13:44:02;2.70;;;1.00;;
15637;SDS011;26604;53.596;10.042;2024-01-15T13:46:29;3.17;;;0.80;;
15637;SDS011;26604;53.596;10.042;2024-01-15T13:48:56;2.47;;;0.75;;
15637;SDS011;26604;53.596;10.042;2024-01-15T13:51:24;3.70;;;1.05;;
15637;SDS011;26604;53.596;10.042;2024-01-15T13:53:51;4.82;;;1.10;;
15637;SDS011;26604;53.596;10.042;2024-01-15T13:56:18;1.42;;;0.70;;
15637;SDS011;26604;53.596;10.042;2024-01-15T13:58:45;2.63;;;1.00;;
15637;SDS011;26604;53.596;10.042;2024-01-15T14:01:14;3.53;;;1.05;;
15637;SDS011;26604;53.596;10.042;2024-01-15T14:03:42;2.63;;;1.10;;
15637;SDS011;26604;53.596;10.042;2024-01-15T14:06:09;6.75;;;1.75;;
15637;SDS011;26604;53.596;10.042;2024-01-15T14:08:37;3.85;;;1.00;;
15637;SDS011;26604;53.596;10.042;2024-01-15T14:11:04;3.38;;;1.10;;
15637;SDS011;26604;53.596;10.042;2024-01-15T14:13:32;4.80;;;1.35;;
15637;SDS011;26604;53.596;10.042;2024-01-15T14:16:07;3.70;;;1.88;;
15637;SDS011;26604;53.596;10.042;2024-01-15T14:18:34;2.00;;;0.85;;
15637;SDS011;26604;53.596;10.042;2024-01-15T14:21:01;2.80;;;1.10;;
15637;SDS011;26604;53.596;10.042;2024-01-15T14:23:28;2.65;;;0.90;;
15637;SDS011;26604;53.596;10.042;2024-01-15T14:25:57;6.20;;;1.58;;
15637;SDS011;26604;53.596;10.042;2024-01-15T14:28:23;3.30;;;1.10;;
15637;SDS011;26604;53.596;10.042;2024-01-15T14:30:50;3.00;;;1.40;;
15637;SDS011;26604;53.596;10.042;2024-01-15T14:35:59;2.40;;;1.00;;
15637;SDS011;26604;53.596;10.042;2024-01-15T14:38:26;4.80;;;1.20;;
15637;SDS011;26604;53.596;10.042;2024-01-15T14:40:53;3.55;;;1.30;;
15637;SDS011;26604;53.596;10.042;2024-01-15T14:43:21;5.07;;;1.15;;
15637;SDS011;26604;53.596;10.042;2024-01-15T14:45:51;1.73;;;1.00;;
15637;SDS011;26604;53.596;10.042;2024-01-15T14:48:18;6.90;;;1.30;;
15637;SDS011;26604;53.596;10.042;2024-01-15T14:50:45;2.85;;;1.13;;
15637;SDS011;26604;53.596;10.042;2024-01-15T14:53:12;2.25;;;1.17;;
15637;SDS011;26604;53.596;10.042;2024-01-15T14:55:39;3.25;;;0.98;;
15637;SDS011;26604;53.596;10.042;2024-01-15T14:58:05;4.18;;;1.25;;
15637;SDS011;26604;53.596;10.042;2024-01-15T15:00:34;2.20;;;1.13;;
15637;SDS011;26604;53.596;10.042;2024-01-15T15:03:00;2.35;;;1.27;;
15637;SDS011;26604;53.596;10.042;2024-01-15T15:05:27;4.95;;;1.40;;
15637;SDS011;26604;53.596;10.042;2024-01-15T15:07:54;2.25;;;1.13;;
15637;SDS011;26604;53.596;10.042;2024-01-15T15:10:21;1.85;;;1.20;;
15637;SDS011;26604;53.596;10.042;2024-01-15T15:12:48;2.45;;;1.15;;
15637;SDS011;26604;53.596;10.042;2024-01-15T15:15:14;3.28;;;1.40;;
15637;SDS011;26604;53.596;10.042;2024-01-15T15:17:44;1.45;;;1.23;;
15637;SDS011;26604;53.596;10.042;2024-01-15T15:20:11;9.35;;;1.90;;
15637;SDS011;26604;53.596;10.042;2024-01-15T15:22:38;5.55;;;2.10;;
15637;SDS011;26604;53.596;10.042;2024-01-15T15:25:05;3.22;;;1.65;;
15637;SDS011;26604;53.596;10.042;2024-01-15T15:27:34;6.80;;;1.77;;
15637;SDS011;26604;53.596;10.042;2024-01-15T15:30:00;2.70;;;1.65;;
15637;SDS011;26604;53.596;10.042;2024-01-15T15:32:28;2.35;;;1.45;;
15637;SDS011;26604;53.596;10.042;2024-01-15T15:34:56;2.65;;;1.88;;
15637;SDS011;26604;53.596;10.042;2024-01-15T15:37:23;5.85;;;1.90;;
15637;SDS011;26604;53.596;10.042;2024-01-15T15:39:50;3.38;;;1.40;;
15637;SDS011;26604;53.596;10.042;2024-01-15T15:42:17;3.80;;;1.50;;
15637;SDS011;26604;53.596;10.042;2024-01-15T15:44:44;5.43;;;1.92;;
15637;SDS011;26604;53.596;10.042;2024-01-15T15:47:12;5.50;;;2.10;;
15637;SDS011;26604;53.596;10.042;2024-01-15T15:49:40;2.80;;;1.85;;
15637;SDS011;26604;53.596;10.042;2024-01-15T15:52:08;7.13;;;2.47;;
15637;SDS011;26604;53.596;10.042;2024-01-15T15:54:36;5.95;;;2.30;;
15637;SDS011;26604;53.596;10.042;2024-01-15T15:57:03;4.95;;;2.47;;
15637;SDS011;26604;53.596;10.042;2024-01-15T15:59:30;4.60;;;2.10;;
15637;SDS011;26604;53.596;10.042;2024-01-15T16:01:57;4.00;;;2.30;;
15637;SDS011;26604;53.596;10.042;2024-01-15T16:04:24;5.18;;;2.35;;
15637;SDS011;26604;53.596;10.042;2024-01-15T16:06:51;6.55;;;2.60;;
15637;SDS011;26604;53.596;10.042;2024-01-15T16:09:20;6.18;;;2.63;;
15637;SDS011;26604;53.596;10.042;2024-01-15T16:11:47;6.13;;;2.58;;
15637;SDS011;26604;53.596;10.042;2024-01-15T16:14:15;6.85;;;3.03;;
15637;SDS011;26604;53.596;10.042;2024-01-15T16:16:43;5.50;;;3.00;;
15637;SDS011;26604;53.596;10.042;2024-01-15T16:19:09;4.55;;;2.78;;
15637;SDS011;26604;53.596;10.042;2024-01-15T16:21:36;5.15;;;2.58;;
15637;SDS011;26604;53.596;10.042;2024-01-15T16:24:03;7.65;;;2.70;;
15637;SDS011;26604;53.596;10.042;2024-01-15T16:26:32;4.78;;;2.85;;
15637;SDS011;26604;53.596;10.042;2024-01-15T16:28:58;8.55;;;3.28;;
15637;SDS011;26604;53.596;10.042;2024-01-15T16:31:25;6.03;;;2.60;;
15637;SDS011;26604;53.596;10.042;2024-01-15T16:33:52;8.57;;;3.17;;
15637;SDS011;26604;53.596;10.042;2024-01-15T16:36:19;7.70;;;3.30;;
15637;SDS011;26604;53.596;10.042;2024-01-15T16:38:46;8.80;;;3.33;;
15637;SDS011;26604;53.596;10.042;2024-01-15T16:41:13;7.00;;;3.15;;
15637;SDS011;26604;53.596;10.042;2024-01-15T16:43:42;6.32;;;3.60;;
15637;SDS011;26604;53.596;10.042;2024-01-15T16:46:09;7.35;;;3.40;;
15637;SDS011;26604;53.596;10.042;2024-01-15T16:48:36;7.63;;;4.28;;
15637;SDS011;26604;53.596;10.042;2024-01-15T16:51:03;7.22;;;3.92;;
15637;SDS011;26604;53.596;10.042;2024-01-15T16:53:30;10.32;;;3.75;;
15637;SDS011;26604;53.596;10.042;2024-01-15T16:55:57;7.30;;;4.10;;
15637;SDS011;26604;53.596;10.042;2024-01-15T16:58:24;6.95;;;3.88;;
15637;SDS011;26604;53.596;10.042;2024-01-15T17:00:52;6.65;;;4.43;;
15637;SDS011;26604;53.596;10.042;2024-01-15T17:03:20;7.20;;;4.30;;
15637;SDS011;26604;53.596;10.042;2024-01-15T17:05:48;8.95;;;4.35;;
15637;SDS011;26604;53.596;10.042;2024-01-15T17:08:15;7.78;;;4.03;;
15637;SDS011;26604;53.596;10.042;2024-01-15T17:10:43;9.07;;;3.83;;
15637;SDS011;26604;53.596;10.042;2024-01-15T17:13:09;5.97;;;3.72;;
15637;SDS011;26604;53.596;10.042;2024-01-15T17:15:36;7.07;;;4.00;;
15637;SDS011;26604;53.596;10.042;2024-01-15T17:18:05;7.10;;;3.70;;
15637;SDS011;26604;53.596;10.042;2024-01-15T17:20:32;6.30;;;3.33;;
15637;SDS011;26604;53.596;10.042;2024-01-15T17:22:58;7.35;;;4.15;;
15637;SDS011;26604;53.596;10.042;2024-01-15T17:25:25;8.00;;;4.13;;
15637;SDS011;26604;53.596;10.042;2024-01-15T17:27:53;9.60;;;4.10;;
15637;SDS011;26604;53.596;10.042;2024-01-15T17:30:19;7.03;;;3.83;;
15637;SDS011;26604;53.596;10.042;2024-01-15T17:32:46;10.07;;;4.55;;
15637;SDS011;26604;53.596;10.042;2024-01-15T17:35:14;7.03;;;4.10;;
15637;SDS011;26604;53.596;10.042;2024-01-15T17:37:41;11.07;;;4.90;;
15637;SDS011;26604;53.596;10.042;2024-01-15T17:40:08;11.65;;;4.72;;
15637;SDS011;26604;53.596;10.042;2024-01-15T17:42:35;14.95;;;5.40;;
15637;SDS011;26604;53.596;10.042;2024-01-15T17:45:03;8.32;;;4.63;;
15637;SDS011;26604;53.596;10.042;2024-01-15T17:50:04;12.02;;;5.70;;
15637;SDS011;26604;53.596;10.042;2024-01-15T17:52:33;10.13;;;5.45;;
15637;SDS011;26604;53.596;10.042;2024-01-15T17:55:01;14.38;;;5.60;;
15637;SDS011;26604;53.596;10.042;2024-01-15T17:57:28;10.77;;;5.75;;
15637;SDS011;26604;53.596;10.042;2024-01-15T17:59:57;8.52;;;5.60;;
15637;SDS011;26604;53.596;10.042;2024-01-15T18:02:27;9.80;;;5.53;;
15637;SDS011;26604;53.596;10.042;2024-01-15T18:04:56;12.07;;;5.80;;
15637;SDS011;26604;53.596;10.042;2024-01-15T18:07:24;9.82;;;5.47;;
15637;SDS011;26604;53.596;10.042;2024-01-15T18:09:53;13.13;;;6.10;;
15637;SDS011;26604;53.596;10.042;2024-01-15T18:12:20;18.58;;;6.32;;
15637;SDS011;26604;53.596;10.042;2024-01-15T18:14:47;12.57;;;5.75;;
15637;SDS011;26604;53.596;10.042;2024-01-15T18:17:14;11.40;;;6.57;;
15637;SDS011;26604;53.596;10.042;2024-01-15T18:19:41;13.13;;;6.00;;
15637;SDS011;26604;53.596;10.042;2024-01-15T18:22:08;15.50;;;5.90;;
15637;SDS011;26604;53.596;10.042;2024-01-15T18:24:35;10.77;;;5.10;;
15637;SDS011;26604;53.596;10.042;2024-01-15T18:27:04;11.57;;;6.43;;
15637;SDS011;26604;53.596;10.042;2024-01-15T18:29:31;10.80;;;5.40;;
15637;SDS011;26604;53.596;10.042;2024-01-15T18:31:57;9.27;;;5.05;;
15637;SDS011;26604;53.596;10.042;2024-01-15T18:34:25;11.35;;;5.30;;
15637;SDS011;26604;53.596;10.042;2024-01-15T18:36:51;10.07;;;4.95;;
15637;SDS011;26604;53.596;10.042;2024-01-15T18:39:18;9.77;;;5.53;;
15637;SDS011;26604;53.596;10.042;2024-01-15T18:41:45;8.88;;;3.72;;
15637;SDS011;26604;53.596;10.042;2024-01-15T18:44:14;9.30;;;3.03;;
15637;SDS011;26604;53.596;10.042;2024-01-15T18:46:41;6.82;;;2.88;;
15637;SDS011;26604;53.596;10.042;2024-01-15T18:49:09;5.90;;;1.90;;
15637;SDS011;26604;53.596;10.042;2024-01-15T18:51:36;5.13;;;1.55;;
15637;SDS011;26604;53.596;10.042;2024-01-15T18:54:03;4.00;;;1.42;;
15637;SDS011;26604;53.596;10.042;2024-01-15T18:56:30;3.03;;;1.27;;
15637;SDS011;26604;53.596;10.042;2024-01-15T18:58:58;2.25;;;1.08;;
15637;SDS011;26604;53.596;10.042;2024-01-15T19:01:27;3.90;;;1.58;;
15637;SDS011;26604;53.596;10.042;2024-01-15T19:03:55;4.60;;;1.40;;
15637;SDS011;26604;53.596;10.042;2024-01-15T19:06:23;4.57;;;1.40;;
15637;SDS011;26604;53.596;10.042;2024-01-15T19:08:50;6.53;;;1.50;;
15637;SDS011;26604;53.596;10.042;2024-01-15T19:11:17;3.40;;;1.25;;
15637;SDS011;26604;53.596;10.042;2024-01-15T19:13:44;1.77;;;1.30;;
15637;SDS011;26604;53.596;10.042;2024-01-15T19:16:11;3.90;;;1.30;;
15637;SDS011;26604;53.596;10.042;2024-01-15T19:18:41;2.47;;;1.50;;
15637;SDS011;26604;53.596;10.042;2024-01-15T19:21:08;2.40;;;1.35;;
15637;SDS011;26604;53.596;10.042;2024-01-15T19:23:35;4.45;;;1.85;;
15637;SDS011;26604;53.596;10.042;2024-01-15T19:26:01;3.00;;;1.60;;
15637;SDS011;26604;53.596;10.042;2024-01-15T19:28:29;4.35;;;2.08;;
15637;SDS011;26604;53.596;10.042;2024-01-15T19:30:56;2.83;;;1.65;;
15637;SDS011;26604;53.596;10.042;2024-01-15T19:33:23;4.57;;;2.40;;
15637;SDS011;26604;53.596;10.042;2024-01-15T19:35:51;4.55;;;2.03;;
15637;SDS011;26604;53.596;10.042;2024-01-15T19:38:18;5.75;;;1.83;;
15637;SDS011;26604;53.596;10.042;2024-01-15T19:40:44;4.20;;;2.13;;
15637;SDS011;26604;53.596;10.042;2024-01-15T19:43:11;3.10;;;2.25;;
15637;SDS011;26604;53.596;10.042;2024-01-15T19:45:38;2.63;;;1.80;;
15637;SDS011;26604;53.596;10.042;2024-01-15T19:48:05;3.58;;;2.03;;
15637;SDS011;26604;53.596;10.042;2024-01-15T19:50:32;1.88;;;1.67;;
15637;SDS011;26604;53.596;10.042;2024-01-15T19:53:00;3.53;;;2.17;;
15637;SDS011;26604;53.596;10.042;2024-01-15T19:55:27;2.83;;;1.77;;
15637;SDS011;26604;53.596;10.042;2024-01-15T19:57:54;2.65;;;1.90;;
15637;SDS011;26604;53.596;10.042;2024-01-15T20:00:21;4.63;;;1.88;;
15637;SDS011;26604;53.596;10.042;2024-01-15T20:02:48;3.85;;;1.80;;
15637;SDS011;26604;53.596;10.042;2024-01-15T20:05:15;4.85;;;1.90;;
15637;SDS011;26604;53.596;10.042;2024-01-15T20:07:42;2.30;;;1.73;;
15637;SDS011;26604;53.596;10.042;2024-01-15T20:10:10;2.38;;;1.65;;
15637;SDS011;26604;53.596;10.042;2024-01-15T20:12:38;2.05;;;1.77;;
15637;SDS011;26604;53.596;10.042;2024-01-15T20:15:05;2.53;;;1.67;;
15637;SDS011;26604;53.596;10.042;2024-01-15T20:17:33;3.67;;;1.50;;
15637;SDS011;26604;53.596;10.042;2024-01-15T20:19:59;2.75;;;1.45;;